WFO Denver/Boulder


Hot-Air Balloon Forecast for Colorado
National Weather Service Denver/Boulder, Colorado
0825 MST Tuesday, January 27, 2015

COLORADO SYNOPSIS VALID 27/1200Z-28/0000Z HIGH PRESSURE RIDGE ALOFT 
OVER COLORADO WILL SHIFT EAST OF COLORADO LATE IN PERIOD AS FLOW 
ALOFT SHIFTS SOUTHWEST. AIRMASS GENERALLY DRY AND STABLE EXCEPT 
INCREASING HIGH LEVEL MOISTURE.  

* * * * * Northeast Colorado * * * * *

METAR KFNL 271515Z AUTO 00000KT 10SM CLR 02/M04 A3016 RMK AO1
METAR KFNL 271455Z AUTO 00000KT 10SM CLR 03/M07 A3016 RMK AO1 52007
METAR KFNL 271435Z AUTO 00000KT 10SM CLR 03/M06 A3015 RMK AO1

METAR KGXY 271515Z AUTO 32003KT 10SM CLR M01/M04 A3014 RMK AO1
METAR KGXY 271455Z AUTO 31006KT 10SM CLR M02/M06 A3013 RMK AO1 54000
METAR KGXY 271435Z AUTO 30004KT 10SM CLR M03/M07 A3014 RMK AO1

METAR KLMO 271515Z AUTO 00000KT 10SM CLR 03/M03 A3016 RMK AO2
       T00321030
METAR KLMO 271455Z AUTO 00000KT 10SM CLR 02/M05 A3017 RMK AO2
       T00191047
METAR KLMO 271435Z AUTO 00000KT 10SM CLR 00/M05 A3017 RMK AO2
       T10011053

METAR KBDU 271516Z AUTO 33003KT 10SM CLR 10/M06 A3014 RMK AO2
METAR KBDU 271456Z AUTO 00000KT 10SM CLR 08/M07 A3014 RMK AO2
METAR KBDU 271436Z AUTO 00000KT 10SM CLR 08/M07 A3014 RMK AO2

METAR KEIK 271515Z AUTO 00000KT 10SM CLR 04/M04 A3015 RMK AO2
       T00381037
METAR KEIK 271455Z AUTO 00000KT 10SM CLR 02/M05 A3015 RMK AO2
       T00181048
METAR KEIK 271435Z AUTO 00000KT 10SM CLR 01/M05 A3014 RMK AO2
       T00081052

KBJC 271135Z 2712/2812 24005KT P6SM FEW250
     FM271500 VRB05KT P6SM FEW250
     FM272000 28009KT P6SM FEW140 SCT220
     FM280100 27008KT P6SM FEW140 SCT220
     FM280300 27015G25KT P6SM FEW140 SCT220
METAR KBJC 271455Z 00000KT 30SM FEW150 10/M09 A3017
METAR KBJC 271353Z 18003KT 30SM FEW150 10/M09 A3016
METAR KBJC 271247Z 00000KT 30SM SKC 09/M08 A3016

KDEN 271502Z 2715/2818 21016KT P6SM FEW250
     FM271700 25010KT P6SM SCT220
     FM272000 30009KT P6SM FEW140 SCT220
     FM272300 02007KT P6SM SCT140 BKN200
     FM280100 14008KT P6SM SCT120 BKN200
     FM280300 20012KT P6SM FEW140 BKN200
METAR KDEN 271453Z 22015KT 10SM FEW150 SCT250 09/M06 A3016 RMK AO2
       SLP192 T00891061 53001
METAR KDEN 271353Z 21014KT 10SM FEW220 07/M06 A3015 RMK AO2 SLP188
       T00721056
METAR KDEN 271253Z 22016KT 10SM CLR 09/M06 A3015 RMK AO2 SLP174
       T00891061


KBKF 2709/2815 20012KT 9999 SCT160 QNH3018INS
     BECMG 2711/2712 VRB06KT 9999 OVC160 QNH3017INS
     BECMG 2802/2803 27012KT 9999 BKN100 OVC180 QNH3012INS
     TEMPO 2806/2815 27016G24KT TX15/2720Z TN01/2814Z
METAR KBKF 271458Z 20011KT 10SM FEW110 FEW220 08/M06 A3018 RMK AO2A
       SLP191 T00771062 55000
METAR KBKF 271358Z 21012KT 10SM FEW220 07/M06 A3017 RMK AO2A SLP192
       T00671062
METAR KBKF 271258Z 22009KT 10SM CLR 06/M06 A3017 RMK AO2A SLP187
       T00631063

KAPA 271135Z 2712/2812 21012KT P6SM FEW250
     FM271600 24008KT P6SM FEW220
     FM271800 VRB05KT P6SM SCT220
     FM272100 04005KT P6SM FEW140 SCT220
     FM280100 14008KT P6SM FEW140 BKN200
     FM280300 18010KT P6SM SCT120 BKN200
METAR KAPA 271453Z 23007KT 10SM FEW140 FEW220 09/M07 A3018 RMK AO2
       SLP203 T00891067 53000
METAR KAPA 271353Z 20009KT 10SM FEW140 07/M06 A3018 RMK AO2 SLP206
       T00671061
METAR KAPA 271253Z 20009KT 10SM CLR 08/M07 A3018 RMK AO2 SLP199
       T00781072

METAR KMNH 271516Z AUTO 20006KT 10SM CLR 07/M06 A3026 RMK AO2
METAR KMNH 271456Z AUTO 21007KT 10SM CLR 07/M07 A3025 RMK AO2
METAR KMNH 271436Z AUTO 22010KT 10SM CLR 07/M08 A3025 RMK AO2

METAR KFMM 271515Z AUTO 28008KT 10SM CLR 07/M03 A3013 RMK AO2
       T00691033
METAR KFMM 271455Z AUTO 29010KT 10SM CLR 03/M03 A3013 RMK AO2
       T00341034
METAR KFMM 271435Z AUTO 28006KT 10SM CLR M01/M03 A3013 RMK AO2
       T10111035

METAR KSTK 271510Z AUTO 21006KT 10SM CLR 02/00 A3012 RMK AO2
METAR KSTK 271450Z AUTO 22004KT 10SM CLR 01/00 A3012 RMK AO2
METAR KSTK 271430Z AUTO 23003KT 10SM CLR 01/00 A3012 RMK AO2

METAR KAKO 271453Z AUTO 26013KT 10SM CLR 08/M03 A3013 RMK AO2 SLP191
       T00781028 53004
METAR KAKO 271353Z AUTO 25013KT 10SM CLR 06/M03 A3012 RMK AO2 SLP193
       T00561028
METAR KAKO 271253Z AUTO 25013KT 10SM CLR 04/M02 A3011 RMK AO2 SLP191
       T00441022

METAR KLIC 271455Z AUTO 35005KT 10SM CLR 03/M03 A3018 RMK AO2 SLP229
       T00281033 53002
METAR KLIC 271355Z AUTO 35006KT 10SM CLR 01/M04 A3018 RMK AO2 SLP230
       T00111044
METAR KLIC 271255Z AUTO 35006KT 10SM CLR M01/M05 A3017 RMK AO2 SLP227
       T10111050

METAR KHEQ 271515Z AUTO 26009KT 10SM CLR 06/00 A3009 RMK AO2
METAR KHEQ 271455Z AUTO 27008KT 10SM CLR 05/00 A3009 RMK AO2
METAR KHEQ 271435Z AUTO 27010KT 10SM CLR 03/M01 A3009 RMK AO2

METAR K2V5 271515Z AUTO 25011KT 10SM CLR 04/M01 A3010 RMK AO2
       T00411006
METAR K2V5 271455Z AUTO 25007KT 10SM CLR 03/M01 A3010 RMK AO2
       T00301010
METAR K2V5 271435Z AUTO 25007KT 10SM CLR 02/M01 A3010 RMK AO2
       T00241011

METAR KITR 271453Z AUTO 24007KT 10SM CLR 07/M03 A3014 RMK AO2 SLP202
       T00671028 53004
METAR KITR 271353Z AUTO 25008KT 10SM CLR 04/M03 A3013 RMK AO2 SLP199
       T00441033
METAR KITR 271253Z AUTO 25008KT 10SM CLR 04/M03 A3012 RMK AO2 SLP194
       T00441028

Sunrise/Sunset for 01/27/2015
Fort Collins - 07:14:17 MST / 17:10:46 MST
Denver       - 07:11:58 MST / 17:12:16 MST
Sterling     - 07:07:05 MST / 17:03:07 MST

Denver/Boulder (KFTG) 01/27/15 15:06 UTC
Radar VAD winds      Height      Dir/Spd(kt)
                   9000 FT MSL...283/000
                   8400 FT MSL...052/004

Denver/Boulder Aviation Discussion
Issued at 1004 UTC Tuesday, January 27, 2015

.AVIATION...(FOR THE TAFS THROUGH 12Z WEDNESDAY MORNING)
ISSUED AT 300 AM MST TUE JAN 27 2015
MODERATE SOUTHERLY WINDS 12-20KT AT DEN/APA THOUGH MID MORNING
BEFORE WEAKENING AND BECOMING MORE VARIABLE THIS AFTERNOON. COULD
SEE SOME STRONGER WEST WINDS DEVELOPING AT BJC THIS EVENING AND
OVERNIGHT WITH APPROACHING TROF. VFR CONDITIONS WITH SOME INCREASE
IN CIRRUS THROUGH PERIOD. 


* * * * * Southeast Colorado * * * * *

METAR K4BM 271516Z AUTO 24008KT 10SM CLR 01/M11 A3048 RMK AO2
METAR K4BM 271456Z AUTO 24008KT 10SM CLR 00/M11 A3048 RMK AO2
METAR K4BM 271436Z AUTO 24009G16KT 10SM CLR 00/M11 A3048 RMK AO2

METAR KAFF 271458Z AUTO 03006KT 10SM CLR 03/M07 A3024 RMK AO2 SLP245
       T00331070 55000
METAR KAFF 271358Z AUTO 02008KT 10SM CLR 01/M07 A3024 RMK AO2 SLP257
       T00051068
METAR KAFF 271258Z AUTO 36006KT 10SM CLR 00/M06 A3024 RMK AO2 SLP226
       T00041061

KCOS 271135Z 2712/2812 36008KT P6SM SCT250
     FM271500 VRB05KT P6SM BKN250
     FM271800 17008KT P6SM FEW150 BKN250
     FM280300 36007KT P6SM SCT150 BKN250
     FM280600 35010KT P6SM SCT250
METAR KCOS 271454Z 36009KT 10SM SCT250 06/M05 A3024 RMK AO2 SLP239
       T00561050 56001
METAR KCOS 271354Z 36008KT 10SM FEW250 04/M06 A3024 RMK AO2 SLP226
       T00391056
METAR KCOS 271254Z 01008KT 10SM CLR 03/M06 A3023 RMK AO2 SLP224
       T00331056

METAR KABH 271456Z AUTO 00000KT CLR A3022 RMK AO2 SLPNO 54000 $
METAR KABH 271356Z AUTO 05003KT CLR A3022 RMK AO2 SLPNO $
METAR KABH 271256Z AUTO 05003KT 10SM CLR A3022 RMK AO2 SLPNO $

METAR KFLY 271513Z AUTO 31005KT 10SM CLR 08/M05 A3027 RMK AO2
       T00751050
METAR KFLY 271453Z AUTO 31007KT 10SM CLR 05/M05 A3027 RMK AO2
       T00451051
METAR KFLY 271433Z AUTO 30007KT 10SM CLR 03/M06 A3027 RMK AO2
       T00271062

KFCS 2713/2819 33012KT 9999 BKN250 QNH3020INS
     BECMG 2718/2719 32009KT 9999 BKN190 BKN220 QNH3013INS
     BECMG 2804/2805 26015KT 9999 BKN210 510009 QNH3008INS
     BECMG 2806/2807 27015G25KT 9999 BKN250 520009 QNH3007INS
     TX18/2721Z TN02/2713Z
METAR KFCS 271458Z AUTO 33010KT 10SM CLR 06/M06 A3021 RMK AO2 SLP240
       55000
METAR KFCS 271358Z AUTO 33009KT 10SM CLR 04/M06 A3020 RMK AO2 SLP231
METAR KFCS 271258Z AUTO 34010KT 10SM CLR 04/M05 A3020 RMK AO2 SLP231

KPUB 271135Z 2712/2812 26006KT P6SM SCT250
     FM271800 28009KT P6SM FEW150 BKN250
     FM280600 31010KT P6SM SCT250
METAR KPUB 271453Z 28005KT 10SM CLR 01/M03 A3019 RMK AO2 SLP234
       T00061033 53001
METAR KPUB 271353Z 25006KT 10SM CLR M01/M04 A3019 RMK AO2 SLP232
       T10061039
METAR KPUB 271253Z AUTO 27008KT 10SM CLR M01/M04 A3019 RMK AO2 SLP221
       T10061039


METAR KTAD 271454Z AUTO 00000KT 10SM CLR 04/M04 A3025 RMK AO2 SLP228
       T00391044 50001
METAR KTAD 271354Z AUTO 27008KT 10SM CLR 02/M06 A3025 RMK AO2 SLP234
       T00171056
METAR KTAD 271254Z AUTO 24015KT 10SM CLR 05/M06 A3024 RMK AO2 SLP215
       T00501056

METAR KLHX 271453Z AUTO 24007KT 10SM CLR 05/M02 A3019 RMK AO2 SLP210
       T00501017 53005
METAR KLHX 271353Z AUTO 25009KT 10SM CLR 01/M03 A3018 RMK AO2 SLP210
       T00111028
METAR KLHX 271253Z AUTO 26005KT 10SM CLR 02/M03 A3017 RMK AO2 SLP208
       T00171028

METAR KLAA 271453Z AUTO 24007KT 10SM CLR 02/M01 A3017 RMK AO2 SLP221
       T00221006 53004
METAR KLAA 271353Z AUTO 24007KT 10SM CLR 01/M02 A3016 RMK AO2 SLP222
       T00061017
METAR KLAA 271253Z AUTO 24007KT 10SM CLR 01/M02 A3015 RMK AO2 SLP211
       T00061017

METAR KSPD 271456Z AUTO 24006KT 07/M02 A3019 RMK AO1 SLP215 T00671022
       53005
METAR KSPD 271356Z AUTO 25009KT 03/M04 A3018 RMK AO1 SLP216
       T00331039
METAR KSPD 271256Z AUTO 25008KT 06/M03 A3017 RMK AO1 SLP203
       T00561033

Sunrise/Sunset for 01/27/2015
Burlington - 07:00:16 MST / 17:02:27 MST
Pueblo     - 07:07:21 MST / 17:14:10 MST
Lamar      - 06:58:58 MST / 17:06:32 MST

Pueblo Aviation Discussion
Issued at 1050 UTC Tuesday, January 27, 2015

.AVIATION...(FOR THE 12Z TAFS THROUGH 12Z WEDNESDAY MORNING)
ISSUED AT 347 AM MST TUE JAN 27 2015
UPPER LEVEL HIGH PRESSURE WILL RESULT IN VFR FOR THE 
KCOS...KPUB AND KALS TAF SITES...AND MOST OF THE FLIGHT AREA...FOR 
THE NEXT 24 HOURS. A WEAK UPPER DISTURBANCE MOVING UP FROM THE 
SOUTHWEST MAY BRING A FEW SNOW SHOWERS TO THE HIGHER TERRAIN ALONG 
THE CONTINENTAL DIVIDE LATER TODAY AND TONIGHT...PRIMARILY IMPACTING 
AREAS NORTH OF MONARCH PASS.  OTHERWISE...NO PRECIPITATION ACROSS 
THE FLIGHT AREA THROUGH 12Z WEDNESDAY. LW


* * * * * Northwest Colorado * * * * *

METAR KCAG 271453Z AUTO 00000KT 10SM CLR M12/M13 A3033 RMK AO2 SLP342
       6//// T11171133 TSNO
METAR KCAG 271253Z AUTO 27003KT 10SM CLR M12/M14 A3031 RMK AO2 SLP323
       T11171139 TSNO $

METAR KHDN 271515Z 12013KT 10SM CLR M03/M09 A3032 RMK AO1
METAR KHDN 271455Z 11016KT 10SM CLR M03/M09 A3032 RMK AO1 54000
METAR KHDN 271435Z 12016KT 10SM CLR M03/M09 A3032 RMK AO1


METAR K33V 271516Z AUTO 12005KT 10SM CLR M08/M11 A3038 RMK AO2
METAR K33V 271456Z AUTO 12005KT 10SM CLR M10/M12 A3038 RMK AO2
METAR K33V 271436Z AUTO 08003KT 10SM CLR M10/M12 A3038 RMK AO2

METAR KEEO 271453Z AUTO VRB03KT 10SM CLR M08/M10 A3032 RMK AO2 SLP309
       T10781100 53003
METAR KEEO 271353Z AUTO 10003KT 10SM CLR M09/M12 A3032 RMK AO2 SLP313
       T10941117
METAR KEEO 271253Z AUTO 00000KT 10SM CLR M08/M11 A3031 RMK AO2 SLP305
       T10831111

METAR K20V 271514Z AUTO 00000KT 1/4SM FG OVC001 A3048 RMK AO2
METAR K20V 271455Z AUTO 00000KT M1/4SM FG OVC001 A3048 RMK AO2
METAR K20V 271435Z AUTO 00000KT 1/4SM FG OVC001 A3047 RMK AO2

METAR K0CO 271514Z AUTO 32014KT 10SM CLR M01/M04 A3052 RMK AO2
METAR K0CO 271455Z AUTO 33013KT 10SM CLR M01/M04 A3052 RMK AO2
METAR K0CO 271435Z AUTO 31012KT 10SM CLR M01/M04 A3052 RMK AO2

KGJT 271120Z 2712/2812 13006KT P6SM SCT250
     FM272000 31004KT P6SM FEW100 BKN200
     FM280200 08004KT P6SM SCT100 BKN150
     FM280800 12006KT P6SM BKN100
METAR KGJT 271453Z 00000KT 10SM CLR M04/M05 A3031 RMK AO2 SLP277
       T10391050 53007
METAR KGJT 271353Z 07005KT 10SM CLR M03/M04 A3030 RMK AO2 SLP274
       T10281044
METAR KGJT 271253Z AUTO 06003KT 10SM CLR 00/M04 A3027 RMK AO2 SLP248
       T00001039

KRIL 271120Z 2712/2812 00000KT P6SM SCT250
     FM272000 22004KT P6SM SCT100 BKN150
     FM280100 20004KT P6SM BKN100
METAR KRIL 271453Z AUTO 00000KT 10SM CLR M04/M07 A3035 RMK AO2 SLP298
       T10391067 53003
METAR KRIL 271353Z AUTO 00000KT 10SM CLR M03/M06 A3034 RMK AO2 SLP291
       T10281061
METAR KRIL 271253Z AUTO 19003KT 10SM CLR M03/M06 A3033 RMK AO2 SLP286
       T10281056

METAR K5SM 271515Z AUTO 00000KT 10SM CLR 02/M08 A3045 RMK AO2
METAR K5SM 271454Z AUTO 00000KT 10SM CLR 02/M08 RMK AO2
METAR K5SM 271435Z AUTO 00000KT 10SM CLR 02/M08 RMK AO2

KEGE 271120Z 2712/2812 00000KT P6SM SCT250
     FM280000 11003KT P6SM FEW100 BKN200
     FM280900 00000KT P6SM VCSH FEW060 BKN100 AMD LTD TO CLD VIS
      AND WIND TIL 271400
METAR KEGE 271450Z 00000KT 10SM FEW120 M09/M09 A3046
METAR KEGE 271350Z 00000KT 10SM FEW120 M09/M09 A3045
METAR KEGE 271335Z AUTO 10004KT 10SM CLR M09/M09 A3044 RMK AO1

KASE 271120Z 2712/2812 18006KT P6SM SCT250
     FM271700 34004KT P6SM BKN200
     FM280000 20004KT P6SM SCT090 BKN150
     FM280600 18005KT P6SM VCSH SCT060 OVC100
METAR KASE 271453Z 14005KT 10SM CLR M04/M09 A3037 RMK AO2 SLP280
       T10441094 53002
METAR KASE 271353Z 16008KT 10SM CLR M05/M10 A3036 RMK AO2 SLP272
       T10501100
METAR KASE 271253Z 17005KT 10SM CLR M07/M11 A3035 RMK AO2 SLP272
       T10671106

METAR KCCU 271515Z AUTO 19009G14KT 10SM CLR 03/M15 A3051 RMK AO2
METAR KCCU 271455Z AUTO 18010KT 10SM CLR 03/M15 A3051 RMK AO2
METAR KCCU 271435Z AUTO 20007KT 10SM CLR 03/M17 A3051 RMK AO2

METAR KLXV 271453Z AUTO 04004KT 10SM CLR M07/M13 A3042 RMK AO2 SLP266
       T10721133 55001
METAR KLXV 271353Z AUTO 03005KT 10SM CLR M08/M14 A3041 RMK AO2 SLP285
       T10781139
METAR KLXV 271253Z AUTO 02005KT 10SM CLR M08/M13 A3041 RMK AO2 SLP256
       T10781133

Sunrise/Sunset for 01/27/2015
Rangely           - 07:28:02 MST / 17:26:43 MST
Grand Junction    - 07:24:53 MST / 17:28:05 MST
Steamboat Springs - 07:21:07 MST / 17:17:58 MST

Grand Junction Aviation Discussion
Issued at 1110 UTC Tuesday, January 27, 2015

.AVIATION...(FOR THE 12Z TAFS THROUGH 12Z WEDNESDAY MORNING)
ISSUED AT 410 AM MST TUE JAN 27 2015
VFR WILL BE MAINTAINED AT ALL TAF SITES THROUGH THE FORECAST
PERIOD. HOWEVER SPOTTY LIGHT PRECIPITATION IS EXPECTED TO EXIST
OVER THE WRN COLORADO HIGH TERRAIN AFTER 00Z THIS EVENING. LIGHT
SHOWERS MAY BE IN THE VICINITY OF KASE AND KEGE. THESE ARE WEAK
OROGRAPHIC DRIVEN SHOWERS...IT APPEARS UNLIKELY THAT ANY SHOWERS
WILL IMPACT KASE OR KEGE.


* * * * * Southwest Colorado * * * * *

METAR KAJZ 271515Z AUTO 00000KT 10SM CLR M02/M05 A3035 RMK AO2
       T10181046
METAR KAJZ 271455Z AUTO 12003KT 10SM CLR M01/M05 A3034 RMK AO2
       T10091046
METAR KAJZ 271435Z AUTO 04005KT 10SM CLR M01/M04 A3034 RMK AO2
       T10111045

KMTJ 271120Z 2712/2812 16006KT P6SM SCT250
     FM271800 35004KT P6SM SCT110 BKN200
     FM280100 14006KT P6SM SCT100 BKN150
METAR KMTJ 271453Z AUTO 17006KT 10SM CLR M02/M05 A3035 RMK AO2 SLP282
       T10171050 53005
METAR KMTJ 271353Z AUTO 14004KT 10SM CLR M01/M05 A3034 RMK AO2 SLP273
       T10111050
METAR KMTJ 271253Z AUTO 13007KT 10SM CLR M02/M06 A3032 RMK AO2 SLP261
       T10221056

METAR KGUC 271515Z 00000KT 10SM CLR M19/M26 A3050 RMK AO1
METAR KGUC 271455Z 00000KT 10SM CLR M19/M25 A3049 RMK AO1 52003
METAR KGUC 271435Z 00000KT 10SM CLR M18/M26 A3049 RMK AO1

METAR K7BM 271515Z AUTO 16003KT 10SM CLR 05/M13 A3042 RMK AO2
METAR K7BM 271455Z AUTO 15004KT 10SM CLR 05/M12 A3042 RMK AO2
METAR K7BM 271434Z AUTO 00000KT 10SM CLR 05/M12 A3041 RMK AO2

METAR KAEJ 271515Z AUTO 34004KT 10SM CLR M02/M08 A3040 RMK AO2
       T10201076
METAR KAEJ 271455Z AUTO 31005KT 10SM CLR M02/M08 A3038 RMK AO2
       T10221078
METAR KAEJ 271435Z AUTO 00000KT 10SM CLR M04/M08 A3038 RMK AO2
       T10371085

METAR KANK 271515Z AUTO 33010G14KT 10SM CLR 01/M08 A3045 RMK AO1
       T00101076
METAR KANK 271455Z AUTO 33011KT 10SM CLR 01/M08 A3044 RMK AO1
       T00091077
METAR KANK 271435Z AUTO 32015G20KT 10SM CLR 01/M08 A3044 RMK AO1
       T00111079

METAR KMYP 271506Z AUTO 24021KT 10SM CLR 00/M12 A3060 RMK AO2
METAR KMYP 271454Z AUTO 24021KT 10SM CLR 00/M12 A3059 RMK AO2
METAR KMYP 271435Z AUTO 23023KT 10SM CLR 00/M12 A3059 RMK AO2

METAR KAIB 271515Z AUTO 00000KT 10SM CLR 00/M03 A3037 RMK AO2
METAR KAIB 271455Z AUTO 13005KT 10SM CLR M01/M05 A3037 RMK AO2
METAR KAIB 271435Z AUTO 14003KT 10SM CLR 00/M04 A3037 RMK AO2

KTEX 271120Z 2712/2812 13004KT P6SM BKN200
     FM271800 25006KT P6SM SCT100 BKN150
     FM280100 15003KT P6SM BKN080
METAR KTEX 271455Z AUTO 12004KT 10SM CLR 04/M08 A3042 RMK AO2 6////
       T00381082
METAR KTEX 271415Z AUTO 04003KT 10SM CLR 05/M08 A3042 RMK AO2
       T00461085
METAR KTEX 271355Z AUTO 00000KT 10SM CLR 06/M09 A3041 RMK AO2
       T00551095

METAR K04V 271516Z AUTO 34011KT 10SM CLR M03/M08 A3042 RMK AO2
METAR K04V 271450Z AUTO 33010KT 10SM CLR M06/M09 A3042 RMK AO2
METAR K04V 271436Z AUTO 33010KT 10SM CLR M07/M10 A3042 RMK AO2

METAR KCEZ 271453Z AUTO 12003KT 10SM CLR M03/M06 A3036 RMK AO2 SLP289
       T10331061 53014
METAR KCEZ 271353Z AUTO 10004KT 10SM CLR M04/M07 A3033 RMK AO2 SLP282
       T10441067
METAR KCEZ 271253Z AUTO 09005KT 10SM CLR M03/M06 A3032 RMK AO2 SLP269
       T10281056

KDRO 271120Z 2712/2812 06003KT P6SM BKN250
     FM272100 23006KT P6SM SCT100 BKN200
     FM280200 36003KT P6SM FEW100 SCT200
METAR KDRO 271453Z AUTO 00000KT 10SM CLR M02/M04 A3038 RMK AO2 SLP314
       T10221044 53009
METAR KDRO 271353Z AUTO 09003KT 10SM CLR M03/M05 A3036 RMK AO2 SLP296
       T10281050
METAR KDRO 271253Z AUTO 00000KT 10SM CLR M02/M05 A3034 RMK AO2 SLP275
       T10221050

METAR KPSO 271515Z AUTO 00000KT 10SM CLR M02/M06 A3041 RMK AO2
       T10171065
METAR KPSO 271455Z AUTO 00000KT 10SM CLR M03/M06 A3041 RMK AO2
       T10301061
METAR KPSO 271435Z AUTO 00000KT 10SM CLR M04/M05 A3040 RMK AO2
       T10421053


KALS 271135Z 2712/2812 VRB03KT P6SM BKN250
     FM272000 VRB05KT P6SM FEW150 BKN250
     FM280600 VRB03KT P6SM SCT250
METAR KALS 271452Z AUTO 00000KT 10SM CLR M09/M12 A3042 RMK AO2 SLP350
       T10941122 53003
METAR KALS 271352Z AUTO 26004KT 10SM FEW002 M12/M13 A3041 RMK AO2 SLP350
       T11221133
SPECI KALS 271345Z AUTO 26005KT 10SM FEW002 M12/M14 A3041 RMK AO2
       T11171139

Sunrise/Sunset for 01/27/2015
Vail    - 07:17:20 MST / 17:18:03 MST
Durango - 07:18:16 MST / 17:29:17 MST
Alamosa - 07:10:40 MST / 17:20:53 MST

Grand Junction Aviation Discussion
Issued at 1110 UTC Tuesday, January 27, 2015

.AVIATION...(FOR THE 12Z TAFS THROUGH 12Z WEDNESDAY MORNING)
ISSUED AT 410 AM MST TUE JAN 27 2015
VFR WILL BE MAINTAINED AT ALL TAF SITES THROUGH THE FORECAST
PERIOD. HOWEVER SPOTTY LIGHT PRECIPITATION IS EXPECTED TO EXIST
OVER THE WRN COLORADO HIGH TERRAIN AFTER 00Z THIS EVENING. LIGHT
SHOWERS MAY BE IN THE VICINITY OF KASE AND KEGE. THESE ARE WEAK
OROGRAPHIC DRIVEN SHOWERS...IT APPEARS UNLIKELY THAT ANY SHOWERS
WILL IMPACT KASE OR KEGE.


* * * * * Arizona * * * * *

KPGA 271120Z 2712/2812 VRB06KT P6SM FEW050 BKN090
      TEMPO 2712/2714 6SM -SHRA BKN050 OVC060
     FM280200 VRB04KT P6SM SCT050 SCT250

METAR KRQE 271453Z AUTO 00000KT 10SM SCT060 BKN075 OVC095 00/M03 A3038
       RMK AO2 SLP271 T00001028 51010 TSNO
METAR KRQE 271353Z AUTO 00000KT 10SM FEW035 BKN048 OVC060 M01/M04 A3037
       RMK AO2 SLP256 T10061039 TSNO
METAR KRQE 271253Z AUTO 00000KT 10SM BKN040 OVC049 M01/M04 A3036 RMK AO2
       SLP248 T10111039 TSNO

Flagstaff (KFSX) 01/27/15 15:14 UTC
Radar VAD winds      Height      Dir/Spd(kt)
                  13000 FT MSL...211/032
                  12000 FT MSL...209/029
                  12000 FT MSL...208/029
                  11000 FT MSL...209/033
                  10300 FT MSL...208/025
                  10000 FT MSL...209/033
                   9000 FT MSL...210/028
                   8500 FT MSL...204/011
                   8400 FT MSL...207/013

Flagstaff Aviation Discussion
Issued at 1147 UTC Tuesday, January 27, 2015

.AVIATION...FOR THE 12Z PACKAGE...A STORM SYSTEM MOVING ACROSS 
NORTHERN ARIZONA IS CAUSING RAINSHOWERS...MOSTLY ALONG AND SOUTH OF 
THE MOGOLLON RIM. CEILINGS WILL SLOWLY LOWER OVER THE NEXT FEW HOURS 
OBSCURING MOUNTAIN TOPS AND LIKELY LEADING TO PERIODS OF MVFR/IFR 
CONDITIONS OVER HIGHER TERRAIN THROUGH THE MORNING HOURS. CONDITIONS 
ARE FORECAST TO IMPROVE DURING THE DAY ON TUESDAY LEADING TO 
WIDESPREAD VFR CONDITIONS BY THE AFTERNOON. AVIATION DISCUSSION NOT 
UPDATED FOR TAF AMENDMENTS.


* * * * * Utah * * * * *

KSLC 271505Z 2715/2818 15004KT 6SM BR SCT060 BKN110
     FM271800 19008KT P6SM -SHRA SCT040 BKN050
     FM272000 19008KT P6SM BKN070
     FM280300 17006KT P6SM VCSH BKN050
     FM281000 17007KT P6SM -SHRA BKN040 OVC060
METAR KSLC 271453Z 00000KT 7SM SCT110 BKN200 M01/M02 A3020 RMK AO2
       SLP235 ACSL DSNT NE AND SE T10061017 53004
METAR KSLC 271353Z 27004KT 4SM BR FEW200 M01/M02 A3018 RMK AO2 SLP230
       T10111022
METAR KSLC 271253Z 13003KT 4SM BR FEW200 M01/M02 A3017 RMK AO2 SLP224
       T10111022

KVEL 271120Z 2712/2812 29003KT P6SM BKN250
     FM271600 14004KT P6SM SCT100 BKN150
     FM280200 28003KT P6SM BKN100
METAR KVEL 271453Z AUTO 30003KT 7SM CLR M06/M08 A3034 RMK AO2 SLP305
       T10561078 53007
METAR KVEL 271353Z AUTO 25003KT 6SM BR CLR M06/M08 A3033 RMK AO2 SLP300
       T10611078
METAR KVEL 271253Z AUTO 31003KT 10SM CLR M06/M08 A3031 RMK AO2 SLP288
       T10611083

METAR KPUC 271453Z AUTO 01007KT 10SM CLR 00/M05 A3029 RMK AO2 SLP281
       T00001050 53003
METAR KPUC 271353Z AUTO 01005KT 10SM CLR M01/M06 A3028 RMK AO2 SLP281
       T10111056
METAR KPUC 271253Z AUTO 03008KT 10SM CLR M01/M05 A3027 RMK AO2 SLP269
       T10061050 $

KCNY 271120Z 2712/2812 00000KT P6SM BKN250
     FM271800 29005KT P6SM FEW080 BKN150
METAR KCNY 271453Z AUTO 00000KT 10SM CLR M03/M04 A3029 RMK AO2 SLP276
       T10281044 53007
METAR KCNY 271353Z AUTO 00000KT 10SM CLR M03/M04 A3028 RMK AO2 SLP270
       T10331044
METAR KCNY 271253Z AUTO 00000KT 10SM CLR M01/M03 A3027 RMK AO2 SLP262
       T10061033


Salt Lake City (KMTX) 01/27/15 15:14 UTC
Radar VAD winds      Height      Dir/Spd(kt)
                  26000 FT MSL...179/030
                  25000 FT MSL...183/034
                  24000 FT MSL...182/028
                  23000 FT MSL...173/029
                  22000 FT MSL...172/032
                  21000 FT MSL...161/033
                  20000 FT MSL...165/032
                  19000 FT MSL...162/031
                  18000 FT MSL...161/029
                  17000 FT MSL...170/028
                  16000 FT MSL...166/035
                  15000 FT MSL...188/026
                  14400 FT MSL...184/026
                  14000 FT MSL...144/031
                  13000 FT MSL...213/020
                  12800 FT MSL...210/017
                  11000 FT MSL...205/009
                  11000 FT MSL...159/029
                  10000 FT MSL...257/016
                   9300 FT MSL...257/003
                   9000 FT MSL...232/005
                   7600 FT MSL...297/003
                   7500 FT MSL...193/014
                   7000 FT MSL...161/015
                   6900 FT MSL...193/013

Salt Lake City Aviation Discussion
Issued at 1201 UTC Tuesday, January 27, 2015

.AVIATION...VALLEY HAZE WILL AT TIMES RESTRICT SURFACE VISIBILITY AT 
THE KSLC TERMINAL TO MVFR LEVELS THROUGH MUCH OF THIS MORNING. 
ADDITIONALLY...A PERIOD OF CIGS AT OR BELOW 6000FT AGL IS EXPECTED 
TO OCCUR  AT TIMES IN THE 17-21Z AS THE LEADING EDGE OF A WEAK BUT 
MOIST SYSTEM MOVES THROUGH. THE BEST CHANCE FOR LIGHT RAIN SHOWERS 
IS IN THIS WINDOW AS WELL AS AFTER MIDNIGHT TONIGHT AS THE WAVE 
SKIRTS NORTHERN UTAH.
$$


* * * * * Wyoming * * * * *

KEVW 271137Z 2712/2812 12006KT P6SM FEW100 SCT200
     FM271700 23008KT P6SM VCSH SCT040 BKN070
     FM280900 23012KT P6SM VCSH SCT020 BKN035=
METAR KEVW 271453Z AUTO 16006KT 10SM CLR 02/M05 A3023 RMK AO2 SLP222
       T00221050 53001
METAR KEVW 271353Z AUTO 10008KT 10SM CLR 02/M04 A3023 RMK AO2 SLP213
       T00171044
METAR KEVW 271253Z AUTO 09007KT 10SM CLR 02/M04 A3023 RMK AO2 SLP211
       T00171044

KRKS 271120Z 2712/2812 16005KT P6SM SCT250
     FM271800 21008KT P6SM FEW120 BKN250
     FM280000 23006KT P6SM SCT070 BKN090
     FM280600 26013KT P6SM VCSH BKN060
METAR KRKS 271454Z AUTO 29003KT 10SM CLR M02/M05 A3024 RMK AO2 SLP246
       T10171050 53000
METAR KRKS 271354Z AUTO 01004KT 10SM CLR M02/M06 A3024 RMK AO2 SLP241
       T10221056
METAR KRKS 271254Z AUTO 10004KT 10SM CLR M03/M06 A3022 RMK AO2 SLP232
       T10281056

KRWL 271124Z 2712/2812 20006KT P6SM SKC
     FM271600 23018G30KT P6SM SKC
     FM280200 24015KT P6SM BKN050
     FM280600 24016KT 3SM BR OVC025
METAR KRWL 271453Z AUTO 00000KT 10SM CLR M01/M06 A3026 RMK AO2 SLP258
       T10061061 53000
METAR KRWL 271353Z AUTO 07005KT 10SM CLR M02/M06 A3026 RMK AO2 SLP258
       T10221061
METAR KRWL 271253Z AUTO 14005KT 10SM CLR M01/M06 A3026 RMK AO2 SLP248
       T10111056

KLAR 271124Z 2712/2812 17010KT P6SM SKC
     FM271600 22014G25KT P6SM SKC
     FM280200 23012KT P6SM SCT100
     FM280600 25021G32KT P6SM BKN050
METAR KLAR 271453Z AUTO 22013KT 10SM CLR 04/M07 A3025 RMK AO2 SLP233
       T00391067 56001
METAR KLAR 271353Z AUTO 22007KT 180V250 10SM CLR 06/M07 A3026 RMK AO2
       SLP218 T00561067
METAR KLAR 271253Z AUTO 24010KT 10SM CLR M01/M07 A3025 RMK AO2 SLP236
       T10111067

KCYS 271124Z 2712/2812 28014KT P6SM SKC
     FM271500 28015G25KT P6SM SKC
     FM280100 28022G33KT P6SM SCT100
METAR KCYS 271453Z 27011KT 10SM CLR 09/M07 A3016 RMK AO2 SLP184
       T00891072 55000
METAR KCYS 271353Z 28008KT 10SM CLR 07/M08 A3016 RMK AO2 SLP187
       T00671078
METAR KCYS 271253Z 28010KT 10SM CLR 06/M08 A3015 RMK AO2 SLP175
       T00611078

Riverton (KRIW) 01/27/15 15:08 UTC
Radar VAD winds      Height      Dir/Spd(kt)
                   9000 FT MSL...109/000
                   8500 FT MSL...102/000
                   6700 FT MSL...304/007

Cheyenne (KCYS) 01/27/15 15:11 UTC
Radar VAD winds      Height      Dir/Spd(kt)
                   8000 FT MSL...288/025

Riverton Aviation Discussion
Issued at 1033 UTC Tuesday, January 27, 2015

.AVIATION.../12Z ISSUANCE/
VFR CONDITIONS WILL OCCUR EAST OF THE CONTINENTAL DIVIDE THROUGH 
LATE TUESDAY NIGHT. 
AREAS OF FOG OR LOW CLOUDS WILL OCCUR IN THE FAR WEST VALLEYS 
INCLUDING THE AFTON AND JACKSON AIRPORTS. MVFR TO LIFR CONDITIONS 
CAN BE EXPECTED UNTIL 19Z. OTHERWISE...VFR CONDITIONS WILL PREVAIL 
WEST OF THE CONTINENTAL DIVIDE THROUGH 00Z. AFTER 00Z AREAS OF SNOW 
WILL OCCUR IN THE MOUNTAINS WITH A MIX OR RAIN OR SNOW IN THE 
WESTERN VALLEYS. EXPECT SOME MVFR CONDITIONS THROUGH 12Z WED IN THE 
WESTERN VALLEYS INCLUDING THE KJAC AIRPORT.

Cheyenne Aviation Discussion
Issued at 0947 UTC Tuesday, January 27, 2015

.AVIATION...(FOR THE 12Z TAFS THROUGH 12Z WEDNESDAY MORNING)
ISSUED AT 926 PM MST MON JAN 26 2015
VFR.


* * * * * Nebraska * * * * *

METAR KIBM 271515Z AUTO 29004KT 10SM CLR 04/M02 A3011 RMK AO2
       T00421025
METAR KIBM 271455Z AUTO 27005KT 10SM CLR 02/M03 A3011 RMK AO2
       T00151031
METAR KIBM 271435Z AUTO 25007KT 10SM CLR 00/M04 A3010 RMK AO2
       T00041037

KSNY 271124Z 2712/2812 28009KT P6SM SKC
     FM271600 29010G20KT P6SM SKC
     FM280200 29012KT P6SM SCT100
METAR KSNY 271453Z AUTO 24008KT 10SM CLR 02/M03 A3011 RMK AO2 SLP209
       T00171028 53008
METAR KSNY 271353Z AUTO 26004KT 10SM CLR M01/M04 A3010 RMK AO2 SLP209
       T10061044
METAR KSNY 271253Z AUTO 30013KT 10SM CLR 03/M03 A3008 RMK AO2 SLP189
       T00281033

METAR KOGA 271515Z AUTO 23004KT 10SM CLR 02/M01 A3006 RMK AO2
       T00191007
METAR KOGA 271455Z AUTO 27006KT 10SM CLR 01/M01 A3007 RMK AO2
       T00101008
METAR KOGA 271435Z AUTO 25006KT 10SM CLR 00/M02 A3006 RMK AO2
       T00001018

METAR KIML 271453Z AUTO 27011KT 10SM CLR 04/M02 A3007 RMK AO2 SLP193
       T00441022 50003
METAR KIML 271353Z AUTO 28006KT 10SM CLR 02/M03 A3007 RMK AO2 SLP195
       T00221028
METAR KIML 271253Z AUTO 29006KT 10SM CLR 02/M03 A3007 RMK AO2 SLP190
       T00221028

KMCK 271120Z 2712/2812 26007KT P6SM SKC
METAR KMCK 271453Z AUTO 25010KT 10SM CLR 03/M01 A3007 RMK AO2 SLP194
       T00281011 53003
METAR KMCK 271353Z AUTO 25011KT 10SM CLR 02/M02 A3007 RMK AO2 SLP194
       T00171017
METAR KMCK 271253Z AUTO 25008KT 10SM CLR 00/M03 A3006 RMK AO2 SLP188
       T00001028

North Platte (KLNX) 01/27/15 15:10 UTC
Radar VAD winds      Height      Dir/Spd(kt)
                   5000 FT MSL...206/028
                   4100 FT MSL...190/021
                   4000 FT MSL...230/002
                   4000 FT MSL...201/019

North Platte Aviation Discussion
Issued at 1158 UTC Tuesday, January 27, 2015

.AVIATION...(FOR THE 12Z TAFS THROUGH 12Z WEDNESDAY MORNING)
ISSUED AT 556 AM CST TUE JAN 27 2015
OVER THE NEXT 24 HOURS...EXPECT MAINLY CLEAR SKIES AND LIGHT
WESTERLY WINDS AT UNDER 10 KTS. THE ONLY CLOUD COVER EXPECTED IS
SOME SCATTERED HIGH CLOUDS AON 25000 FT AGL POSSIBLE TONIGHT. 


* * * * * Kansas * * * * *

KGLD 271120Z 2712/2812 26011KT P6SM SKC
METAR KGLD 271453Z AUTO 25011KT 10SM CLR 10/M03 A3011 RMK AO2 SLP191
       T01001028 53005
METAR KGLD 271353Z AUTO 25010KT 10SM CLR 06/M03 A3010 RMK AO2 SLP193
       T00611028
METAR KGLD 271253Z AUTO 25012KT 10SM CLR 07/M02 A3009 RMK AO2 SLP191
       T00721022

KGCK 271147Z 2712/2812 23010KT P6SM SKC
METAR KGCK 271454Z 26007KT 10SM CLR 04/00 A3013 RMK AO2 SLP209 T00440000
       53008
METAR KGCK 271354Z 27008KT 10SM CLR 01/M02 A3012 RMK AO2 SLP205
       T00111017
METAR KGCK 271254Z AUTO 27009KT 10SM CLR 01/M02 A3012 RMK AO2 SLP205
       T00061017

METAR KLBL 271515Z AUTO 28005KT 10SM CLR 07/01 A3020 RMK AO1
METAR KLBL 271455Z AUTO 30007KT 10SM CLR 06/00 A3019 RMK AO1 52010
METAR KLBL 271435Z AUTO 30006KT 10SM CLR 03/M02 A3018 RMK AO1

METAR KEHA 271508Z AUTO 26009KT 09/M01 RMK AO1 PK WND 11 000
       T00941011
METAR KEHA 271448Z AUTO 26008KT 08/M02 RMK AO1 PK WND 13 000
       T00781016
METAR KEHA 271428Z AUTO 26008KT 07/M02 RMK AO1 PK WND 12 000
       T00671022

Goodland (KGLD) 01/27/15 15:09 UTC
Radar VAD winds      Height      Dir/Spd(kt)
                   8200 FT MSL...309/004
                   6000 FT MSL...192/021
                   5000 FT MSL...190/020
                   4700 FT MSL...191/017
                   4000 FT MSL...198/022
                   4000 FT MSL...194/019

Goodland Aviation Discussion
Issued at 1511 UTC Tuesday, January 27, 2015

.AVIATION...(FOR THE 12Z TAFS THROUGH 12Z WEDNESDAY MORNING)
ISSUED AT 419 AM MST TUE JAN 27 2015
VFR EXPECTED AT BOTH KGLD AND KMCK THROUGH THE TAF PERIOD.
SHORTWAVE RIDGING WILL RESULT IN DRY CONDITIONS...SUNNY SKIES AND
LIGHT WINDS ACROSS THE REGION TODAY.

Dodge City Aviation Discussion
Issued at 1152 UTC Tuesday, January 27, 2015

.AVIATION...(FOR THE 12Z TAFS THROUGH 12Z WEDNESDAY MORNING)
ISSUED AT 548 AM CST TUE JAN 27 2015
A WEAK SURFACE TROUGH WILL DEVELOP ACROSS FAR WESTERN KANSAS
TODAY, RESULTING IN SOUTHWEST WINDS AT 5 TO 12 KTS, WITH THE
STRONGEST WINDS IN THE AFTERNOON WITH DAYTIME HEATING. VFR
CONDITIONS WILL PERSIST WITH CLEAR SKIES.


* * * * * Texas/Oklahoma * * * * *

KGUY 271120Z 2712/2812 27007KT P6SM FEW250
     FM271800 22012G20KT P6SM SCT200
     FM280000 21010KT P6SM SCT200=
METAR KGUY 271453Z AUTO 23004KT 10SM CLR 07/00 A3017 RMK AO2 SLP208
       T00720000 53009
METAR KGUY 271353Z AUTO 24006KT 10SM CLR 04/M01 A3017 RMK AO2 SLP210
       T00391011
METAR KGUY 271253Z AUTO 26004KT 10SM CLR 06/M01 A3015 RMK AO2 SLP196
       T00611006

KDHT 271120Z 2712/2812 27010KT P6SM FEW250
     FM271800 23014KT P6SM SCT200
METAR KDHT 271453Z AUTO 29009KT 10SM CLR 07/M01 A3024 RMK AO2 SLP231
       T00671011 53007
METAR KDHT 271353Z AUTO 29009KT 10SM CLR 04/M02 A3023 RMK AO2 SLP229
       T00441017
METAR KDHT 271253Z AUTO 28010KT 10SM CLR 05/M02 A3021 RMK AO2 SLP223
       T00501017

Amarillo (KAMA) 01/27/15 15:05 UTC
Radar VAD winds      Height      Dir/Spd(kt)
                  35000 FT MSL...238/000
                  30000 FT MSL...257/004
                  28000 FT MSL...348/000
                  26000 FT MSL...264/001
                  25000 FT MSL...269/000
                  22000 FT MSL...082/001
                  20000 FT MSL...338/000
                  19000 FT MSL...252/001
                  18000 FT MSL...090/003
                  17000 FT MSL...286/002
                  16000 FT MSL...135/007
                  15000 FT MSL...288/008
                  14000 FT MSL...309/011
                  11000 FT MSL...270/034
                   9000 FT MSL...175/019
                   8000 FT MSL...276/017
                   6000 FT MSL...224/022
                   4700 FT MSL...208/015
                   4600 FT MSL...230/004

Amarillo Aviation Discussion
Issued at 1112 UTC Tuesday, January 27, 2015

.AVIATION...
VFR CONDITIONS TO PREVAIL OVER THE NEXT 24 HOURS. SURFACE WINDS WILL
REMAIN LIGHT FROM A SOUTH-SOUTHWESTERLY DIRECTION. KGUY MAY SEE SOME
GUSTS UP TO 20KT THIS AFTERNOON AS THE SURFACE PRESSURE GRADIENT
TIGHTENS IN RESPONSE TO A SURFACE TROUGH DEEPENING ACROSS
NORTHWESTERN KANSAS. THESE GUSTS WILL DIMINISH AFTER SUNSET. 


* * * * * New Mexico * * * * *

KFMN 271128Z 2712/2812 09012KT P6SM BKN250
     FM271700 12007KT P6SM VCSH SCT050 BKN100
     FM272100 28006KT P6SM SCT060 BKN100
     FM280300 07006KT P6SM SCT060 BKN120
METAR KFMN 271453Z 09006KT 10SM FEW080 01/M04 A3035 RMK AO2 SLP290
       T00061044 53014
METAR KFMN 271353Z 09009KT 10SM CLR M01/M05 A3033 RMK AO2 SLP283
       T10061050
METAR KFMN 271253Z 12012KT 10SM CLR M01/M04 A3030 RMK AO2 SLP266
       T10061044

METAR KSKX 271515Z AUTO 35005KT 10SM CLR M01/M04 A3042 RMK AO1
METAR KSKX 271455Z AUTO 00000KT 10SM CLR M03/M06 A3041 RMK AO1 52003
METAR KSKX 271435Z AUTO 01006KT 10SM CLR M04/M07 A3040 RMK AO1

KLVS 271128Z 2712/2812 30006KT P6SM BKN200
     FM271700 20008KT P6SM BKN150
     FM272000 21012G20KT P6SM SCT080 SCT150
     FM280200 26007KT P6SM SCT120
METAR KLVS 271453Z AUTO 06003KT 10SM CLR 01/M05 A3034 RMK AO2 SLP253
       T00111050 53002
METAR KLVS 271353Z AUTO 06006KT 10SM CLR M01/M06 A3033 RMK AO2 SLP257
       T10111056
METAR KLVS 271253Z AUTO 06004KT 10SM CLR M01/M05 A3032 RMK AO2 SLP250
       T10111050

METAR KRTN 271453Z AUTO 05007KT 10SM CLR M02/M05 A3031 RMK AO2 SLP262
       T10171050 51003
METAR KRTN 271353Z AUTO 05007KT 10SM CLR M02/M05 A3031 RMK AO2 SLP268
       T10221050
METAR KRTN 271253Z AUTO 04005KT 10SM CLR M02/M05 A3030 RMK AO2 SLP257
       T10221050

METAR KCAO 271455Z AUTO 26009KT 10SM CLR 09/M03 A3024 RMK AO2 SLP219
       T00941028 53005
METAR KCAO 271355Z AUTO 26012KT 10SM CLR 06/M03 A3023 RMK AO2 SLP225
       T00611028
METAR KCAO 271255Z AUTO 26011KT 10SM CLR 07/M03 A3022 RMK AO2 SLP218
       T00671033

Albuquerque (KABX) 01/27/15 15:08 UTC
Radar VAD winds      Height      Dir/Spd(kt)
                  15000 FT MSL...096/007
                  11000 FT MSL...286/003
                   9000 FT MSL...262/007
                   8700 FT MSL...262/005
                   6900 FT MSL...153/002

Albuquerque Aviation Discussion
Issued at 1146 UTC Tuesday, January 27, 2015

.AVIATION...
12Z TAF CYCLE
MTS MAY BECOME OCCASIONALLY OBSCURED AS MOISTURE ASSOCIATED WITH
AN UPPER LOW PRESSURE SYSTEM TRACKING NORTHWARD INTO THE GREAT
BASIN SPREADS NORTH AND EASTWARD INTO NEW MEXICO. CIGS MAY
BRIEFLY FALL TO MVFR IN WDLY SCT -RA AND VERY HIGH TERRAIN -SN
CENTRAL AND WRN NM. FORECAST MODELS INDICATE SOME OF THE MT TOP
MOISTURE WILL LINGER OVER THE WESTERN THIRD OF THE STATE AFT
28/00Z.

* * * * * Winds and Temperatures Aloft Forecasts * * * * *

DATA BASED ON 271200Z    
VALID 271800Z   FOR USE 1700-2100Z. TEMPS NEG ABV 24000
FT  3000    6000   9000    12000   18000   24000  30000  34000  39000
SLC      1912    2017+00 1924-03 1833-15 1745-28 194342 204349 223851
BCE                      2027-06 2044-16 2253-23 225442 225349 224349
LND              2523+08 2414+02 2223-13 2124-27 213043 213053 243458
RKS              2516    2416+00 2123-14 1929-27 193442 203053 243655
GJT              2118+04 2123-02 1831-14 1933-26 243742 233551 244453
FMN              2110+05 2216-02 1927-14 2427-23 252942 243350 254453
ABQ              2510+06 2311+00 2114-13 2824-23 272341 263250 265252
MBW              2639    2526+03 2217-13 2416-27 242243 252552 263158
DEN              2506+11 2408+04 2216-13 2314-27 241743 252352 273856
PUB              2213+10 2314+03 2113-13 2116-26 231942 262252 283855
ALS                      2315+01 1820-12 1923-26 232542 263052 274253
TCC      2410    2110+08 1813+03 1816-12 1717-27 231941 272750 274753
BFF      2836    2614+10 2514+03 2919-14 2823-27 292444 292453 283361
GLD      2420    2513+10 2810+03 2917-14 2920-27 302543 303252 294159
GCK      2415+16 2507+10 2908+03 3019-14 3020-27 312643 303452 294158
GAG      2313+14 2805+09 3506+03 3118-13 3020-26 312842 303552 304457
AMA      2213    1910+09 1708+03 2207-13 2309-26 261842 282151 294253
---------------------------------------------------------------------

DATA BASED ON 271200Z    
VALID 280000Z   FOR USE 2100-0600Z. TEMPS NEG ABV 24000
FT  3000    6000   9000    12000   18000   24000  30000  34000  39000
SLC      1908    2321+00 2224-07 2135-20 2263-25 226641 225948 233848
BCE                      2326-06 2349-13 2362-25 226542 226451 234451
LND              2521+05 2216-01 2031-15 2041-27 235142 235252 254952
RKS              2513    2324-04 2034-16 2240-24 225442 235651 254451
GJT              2214+02 2325-04 2338-13 2448-24 235042 245151 254252
FMN              2809+03 2419-02 2532-11 2438-23 233942 255151 255552
ABQ              3112+05 2620+00 2722-10 2429-23 253241 268449 256253
MBW              2640    2525+00 2128-13 2238-26 264342 253952 265053
DEN              3206+09 1906+02 2126-13 2330-26 273542 263652 274653
PUB              2611+09 2212+03 2125-12 2427-25 273142 263552 274453
ALS                      2715+00 2222-12 2632-23 253442 264051 275053
TCC      2518    2615+08 2514+02 2317-12 2926-23 283341 284550 285552
BFF      2834    2619+10 2221+02 2319-13 2426-27 253643 263553 285055
GLD      2321    2317+11 2217+03 2517-13 2622-27 273042 273053 295155
GCK      2321+17 2315+11 2314+03 2515-13 2723-26 282842 282852 295255
GAG      2318+15 2110+10 2010+03 2712-13 2820-26 282842 292752 295454
AMA      2316    2016+09 1817+03 2117-13 2321-26 282841 293749 295053
---------------------------------------------------------------------

DATA BASED ON 271200Z    
VALID 281200Z   FOR USE 0600-1700Z. TEMPS NEG ABV 24000
FT  3000    6000   9000    12000   18000   24000  30000  34000  39000
SLC      2507    2520-02 2519-08 2924-18 2923-32 273645 254148 243448
BCE                      2619-05 2542-16 2555-29 255845 256151 235152
LND              2729+00 2921-05 2919-21 3229-33 263542 243744 253547
RKS              2736    2732-08 2933-20 2739-32 256443 254646 243547
GJT              2519+00 2522-07 2545-16 2557-29 255745 245750 245550
FMN              2817+01 2724-04 2639-14 2549-27 266443 257750 246355
ABQ              2821+03 2727-02 2526-12 2541-26 278240 750249 258559
MBW              2751    2849-07 2449-16 2456-26 235543 235451 244649
DEN              2834+05 2407-02 2437-13 2548-26 246343 246351 255352
PUB              3026+05 2714+00 2532-12 2538-26 245643 256451 255453
ALS                      2830-01 2634-12 2541-26 235843 246450 246054
TCC      2827    2733+06 2631+02 2425-10 2334-24 255439 268548 267959
BFF      2958    2939+03 2629-02 2441-14 2451-26 256442 246152 254550
GLD      3336    9900+06 2419+01 2538-11 2537-24 264942 265752 265155
GCK      2719+15 2720+09 2426+02 2530-10 2633-24 264642 276251 275856
GAG      2432+14 2332+08 2331+02 2523-11 2826-24 274741 288449 286557
AMA      2736    2532+08 2430+02 2422-09 2531-23 265139 288748 277959
---------------------------------------------------------------------

This product is updated automatically at approximately 10, 30 and 50
minutes after each hour, 24 hours per day, 7 days per week.  It may
become unavailable at times due to system outages without prior notice.
Users are advised to check the time at the top of the product to ensure
that it is current.  Furthermore, content and format of the product are
subject to change without prior notice.

Comments and suggestions are welcome and should be directed to one of
the addresses or phone numbers shown at the bottom of this page.  In
order to expedite a response to comments or suggestions, be sure to
mention your interest in the hot-air balloon forecast.

USA.gov is the U.S. government's official web portal to all federal, state and local government web resources and services.